Terminal Aerodrome Forecast
Issued by NWS Lake Charles, LA

Home | Current Version | Previous Version | Text Only | Print | Product List | Glossary On
Versions: 1 2 3 4 5 6 7 8 9 10 11 12 13
000
FTUS44 KLCH 192320
TAFLFT
TAF
KLFT 192320Z 2000/2024 33007KT P6SM VCTS SCT050CB
     FM200200 VRB03KT P6SM SCT250
     FM201700 15006KT P6SM VCSH SCT050=

USA.gov is the U.S. government's official web portal to all federal, state and local government web resources and services.